createdAt,value
2023-04-07T00:01:29.580Z,5.44
2023-04-07T00:03:57.885Z,5.41
2023-04-07T00:06:27.659Z,5.42
2023-04-07T00:08:55.748Z,5.41
2023-04-07T00:11:23.817Z,5.42
2023-04-07T00:13:52.238Z,5.45
2023-04-07T00:16:20.473Z,5.49
2023-04-07T00:18:48.530Z,5.51
2023-04-07T00:21:16.499Z,5.50
2023-04-07T00:23:45.180Z,5.49
2023-04-07T00:26:13.328Z,5.47
2023-04-07T00:28:42.258Z,5.45
2023-04-07T00:31:10.347Z,5.44
2023-04-07T00:33:38.310Z,5.41
2023-04-07T00:36:06.489Z,5.42
2023-04-07T00:38:34.527Z,5.41
2023-04-07T00:41:02.615Z,5.42
2023-04-07T00:43:30.608Z,5.44
2023-04-07T00:45:59.324Z,5.44
2023-04-07T00:48:27.395Z,5.42
2023-04-07T00:50:55.509Z,5.42
2023-04-07T00:53:24.237Z,5.45
2023-04-07T00:55:52.474Z,5.45
2023-04-07T00:58:20.941Z,5.44
2023-04-07T01:00:56.695Z,5.42
2023-04-07T01:03:52.709Z,5.38
2023-04-07T01:06:25.079Z,5.34
2023-04-07T01:09:01.720Z,5.35
2023-04-07T01:11:49.969Z,5.39
2023-04-07T01:14:21.256Z,5.37
2023-04-07T01:16:59.962Z,5.37
2023-04-07T01:19:40.937Z,5.39
2023-04-07T01:22:15.542Z,5.41
2023-04-07T01:24:47.128Z,5.45
2023-04-07T01:27:37.196Z,5.48
2023-04-07T01:30:10.135Z,5.49
2023-04-07T01:32:41.267Z,5.51
2023-04-07T01:35:13.771Z,5.53
2023-04-07T01:37:43.084Z,5.52
2023-04-07T01:40:12.530Z,5.54
2023-04-07T01:42:42.538Z,5.56
2023-04-07T01:45:11.621Z,5.54
2023-04-07T01:47:40.214Z,5.52
2023-04-07T01:50:11.801Z,5.51
2023-04-07T01:52:40.538Z,5.53
2023-04-07T01:55:10.273Z,5.56
2023-04-07T01:57:43.543Z,5.57
2023-04-07T02:00:18.285Z,5.59
2023-04-07T02:02:52.459Z,5.60
2023-04-07T02:05:23.004Z,5.62
2023-04-07T02:07:59.634Z,5.62
2023-04-07T02:10:29.717Z,5.64
2023-04-07T02:13:02.054Z,5.67
2023-04-07T02:15:32.251Z,5.72
2023-04-07T02:18:02.186Z,5.75
2023-04-07T02:20:31.953Z,5.76
2023-04-07T02:23:00.550Z,5.79
2023-04-07T02:25:29.398Z,5.81
2023-04-07T02:27:59.291Z,5.85
2023-04-07T02:30:28.220Z,5.88
2023-04-07T02:32:57.403Z,5.88
2023-04-07T02:35:25.655Z,5.89
2023-04-07T02:37:54.020Z,5.89
2023-04-07T02:40:21.999Z,5.87
2023-04-07T02:42:50.080Z,5.89
2023-04-07T02:45:18.146Z,5.94
2023-04-07T02:47:46.251Z,5.97
2023-04-07T02:50:14.358Z,5.99
2023-04-07T02:52:42.249Z,6.02
2023-04-07T02:55:12.883Z,6.02
2023-04-07T02:57:41.229Z,6.04
2023-04-07T03:00:20.598Z,6.03
2023-04-07T03:02:57.833Z,6.05
2023-04-07T03:05:26.777Z,6.09
2023-04-07T03:07:54.737Z,6.12
2023-04-07T03:10:23.014Z,6.17
2023-04-07T03:12:52.252Z,6.20
2023-04-07T03:15:20.372Z,6.19
2023-04-07T03:17:49.164Z,6.20
2023-04-07T03:20:17.759Z,6.24
2023-04-07T03:22:47.560Z,6.27
2023-04-07T03:25:26.897Z,6.27
2023-04-07T03:27:55.238Z,6.28
2023-04-07T03:30:23.547Z,6.29
2023-04-07T03:32:51.635Z,6.33
2023-04-07T03:35:19.630Z,6.38
2023-04-07T03:37:47.661Z,6.42
2023-04-07T03:40:18.188Z,6.44
2023-04-07T03:42:46.941Z,6.39
2023-04-07T03:45:16.697Z,6.34
2023-04-07T03:47:48.584Z,6.30
2023-04-07T03:50:16.816Z,6.29
2023-04-07T03:53:00.811Z,6.26
2023-04-07T03:55:31.955Z,6.28
2023-04-07T03:58:03.350Z,6.29
2023-04-07T04:00:33.772Z,6.29
2023-04-07T04:03:09.251Z,6.27
2023-04-07T04:05:40.960Z,6.24
2023-04-07T04:08:10.073Z,6.25
2023-04-07T04:10:39.337Z,6.25
2023-04-07T04:13:08.265Z,6.23
2023-04-07T04:15:36.669Z,6.25
2023-04-07T04:18:05.855Z,6.27
2023-04-07T04:20:34.340Z,6.28
2023-04-07T04:23:03.325Z,6.31
2023-04-07T04:25:31.659Z,6.33
2023-04-07T04:27:59.865Z,6.37
2023-04-07T04:30:27.903Z,6.39
2023-04-07T04:32:58.907Z,6.41
2023-04-07T04:35:34.128Z,6.41
2023-04-07T04:38:13.750Z,6.39
2023-04-07T04:40:46.030Z,6.38
2023-04-07T04:43:14.316Z,6.36
2023-04-07T04:45:42.774Z,6.37
2023-04-07T04:48:12.301Z,6.42
2023-04-07T04:50:43.322Z,6.45
2023-04-07T04:53:13.232Z,6.49
2023-04-07T04:55:52.170Z,6.52
2023-04-07T04:58:23.795Z,6.56
2023-04-07T05:00:59.003Z,6.63
2023-04-07T05:03:32.791Z,6.69
2023-04-07T05:06:03.177Z,6.74
2023-04-07T05:08:31.366Z,6.82
2023-04-07T05:11:00.858Z,6.87
2023-04-07T05:13:31.516Z,6.90
2023-04-07T05:16:01.703Z,6.91
2023-04-07T05:18:30.900Z,6.90
2023-04-07T05:20:59.383Z,6.88
2023-04-07T05:23:28.083Z,6.85
2023-04-07T05:25:56.541Z,6.83
2023-04-07T05:28:25.454Z,6.83
2023-04-07T05:30:54.896Z,6.82
2023-04-07T05:33:25.270Z,6.81
2023-04-07T05:35:54.214Z,6.76
2023-04-07T05:38:22.430Z,6.75
2023-04-07T05:40:50.729Z,6.77
2023-04-07T05:43:25.539Z,6.80
2023-04-07T05:45:53.654Z,6.79
2023-04-07T05:48:22.169Z,6.82
2023-04-07T05:50:50.467Z,6.84
2023-04-07T05:53:19.251Z,6.84
2023-04-07T05:55:47.462Z,6.82
2023-04-07T05:58:34.442Z,6.84
2023-04-07T06:01:02.480Z,6.89
2023-04-07T06:03:30.665Z,6.93
2023-04-07T06:06:10.103Z,6.98
2023-04-07T06:08:38.409Z,7.01
2023-04-07T06:11:07.077Z,7.04
2023-04-07T06:13:35.457Z,7.09
2023-04-07T06:16:05.230Z,7.14
2023-04-07T06:18:33.178Z,7.18
2023-04-07T06:21:01.459Z,7.20
2023-04-07T06:23:29.501Z,7.21
2023-04-07T06:25:57.608Z,7.25
2023-04-07T06:28:25.926Z,7.27
2023-04-07T06:30:54.015Z,7.32
2023-04-07T06:33:25.956Z,7.36
2023-04-07T06:35:53.923Z,7.37
2023-04-07T06:38:22.330Z,7.38
2023-04-07T06:40:51.599Z,7.37
2023-04-07T06:43:19.534Z,7.37
2023-04-07T06:45:55.781Z,7.37
2023-04-07T06:48:23.925Z,7.42
2023-04-07T06:50:52.177Z,7.47
2023-04-07T06:53:20.249Z,7.51
2023-04-07T06:55:48.322Z,7.58
2023-04-07T06:58:16.300Z,7.63
2023-04-07T07:00:44.360Z,7.67
2023-04-07T07:03:12.461Z,7.73
2023-04-07T07:05:40.615Z,7.76
2023-04-07T07:08:08.681Z,7.75
2023-04-07T07:10:36.660Z,7.74
2023-04-07T07:13:04.723Z,7.76
2023-04-07T07:15:32.705Z,7.75
2023-04-07T07:18:00.841Z,7.77
2023-04-07T07:20:28.920Z,7.80
2023-04-07T07:22:56.997Z,7.83
2023-04-07T07:25:27.216Z,7.87
2023-04-07T07:27:55.339Z,7.94
2023-04-07T07:30:24.527Z,8.03
2023-04-07T07:32:53.906Z,8.15
2023-04-07T07:35:23.096Z,8.25
2023-04-07T07:37:52.072Z,8.36
2023-04-07T07:40:20.515Z,8.47
2023-04-07T07:42:48.519Z,8.51
2023-04-07T07:45:17.718Z,8.55
2023-04-07T07:47:45.875Z,8.57
2023-04-07T07:50:13.894Z,8.63
2023-04-07T07:52:41.960Z,8.69
2023-04-07T07:55:10.479Z,8.77
2023-04-07T07:57:38.479Z,8.84
2023-04-07T08:00:07.196Z,8.91
2023-04-07T08:02:41.379Z,8.96
2023-04-07T08:05:10.189Z,9.04
2023-04-07T08:07:38.160Z,9.14
2023-04-07T08:10:07.020Z,9.27
2023-04-07T08:12:35.890Z,9.38
2023-04-07T08:15:04.797Z,9.46
2023-04-07T08:17:32.847Z,9.58
2023-04-07T08:20:01.346Z,9.75
2023-04-07T08:22:29.619Z,9.93
2023-04-07T08:24:57.796Z,10.10
2023-04-07T08:27:25.778Z,10.29
2023-04-07T08:30:02.260Z,10.49
2023-04-07T08:32:37.450Z,10.66
2023-04-07T08:35:05.941Z,10.81
2023-04-07T08:37:35.056Z,10.98
2023-04-07T08:40:04.175Z,11.22
2023-04-07T08:42:34.721Z,11.45
2023-04-07T08:45:05.342Z,11.65
2023-04-07T08:47:35.337Z,11.81
2023-04-07T08:50:11.793Z,11.94
2023-04-07T08:52:56.816Z,12.11
2023-04-07T08:55:26.337Z,12.25
2023-04-07T08:57:54.597Z,12.39
2023-04-07T09:00:22.881Z,12.54
2023-04-07T09:02:52.091Z,12.68
2023-04-07T09:05:21.609Z,12.81
2023-04-07T09:07:49.576Z,12.95
2023-04-07T09:10:18.059Z,13.07
2023-04-07T09:12:46.229Z,13.19
2023-04-07T09:15:14.604Z,13.21
2023-04-07T09:17:42.891Z,13.18
2023-04-07T09:20:11.326Z,13.18
2023-04-07T09:22:42.647Z,13.15
2023-04-07T09:25:19.935Z,13.11
2023-04-07T09:28:00.928Z,13.06
2023-04-07T09:30:31.081Z,13.02
2023-04-07T09:33:00.775Z,13.02
2023-04-07T09:35:29.979Z,13.03
2023-04-07T09:38:09.848Z,13.01
2023-04-07T09:40:38.668Z,12.94
2023-04-07T09:43:07.349Z,12.91
2023-04-07T09:45:37.148Z,12.86
2023-04-07T09:48:07.935Z,12.82
2023-04-07T09:50:46.070Z,12.83
2023-04-07T09:53:14.131Z,12.92
2023-04-07T09:55:42.621Z,12.98
2023-04-07T09:58:17.205Z,12.99
2023-04-07T10:00:46.859Z,12.94
2023-04-07T10:03:15.770Z,12.92
2023-04-07T10:05:45.193Z,12.87
2023-04-07T10:08:14.430Z,12.85
2023-04-07T10:10:44.019Z,12.85
2023-04-07T10:13:12.824Z,12.86
2023-04-07T10:15:41.120Z,12.81
2023-04-07T10:18:09.694Z,12.69
2023-04-07T10:20:43.972Z,12.68
2023-04-07T10:23:23.492Z,12.65
2023-04-07T10:25:54.938Z,12.57
2023-04-07T10:28:26.239Z,12.51
2023-04-07T10:30:55.418Z,12.50
2023-04-07T10:33:47.316Z,12.42
2023-04-07T10:36:18.328Z,12.18
2023-04-07T10:39:09.525Z,12.08
2023-04-07T10:41:39.427Z,11.96
2023-04-07T10:44:08.944Z,11.85
2023-04-07T10:46:47.329Z,11.83
2023-04-07T10:49:18.582Z,11.79
2023-04-07T10:52:27.190Z,11.79
2023-04-07T10:55:32.246Z,11.73
2023-04-07T10:58:19.242Z,11.66
2023-04-07T11:01:14.856Z,11.61
2023-04-07T11:03:53.887Z,11.45
2023-04-07T11:06:22.006Z,11.29
2023-04-07T11:08:53.330Z,11.22
2023-04-07T11:11:42.504Z,11.16
2023-04-07T11:14:11.170Z,11.07
2023-04-07T11:16:43.553Z,11.07
2023-04-07T11:19:12.640Z,11.06
2023-04-07T11:21:40.631Z,11.01
2023-04-07T11:24:08.680Z,10.96
2023-04-07T11:26:41.792Z,10.88
2023-04-07T11:29:11.992Z,10.80
2023-04-07T11:31:40.330Z,10.73
2023-04-07T11:34:09.181Z,10.68
2023-04-07T11:36:42.004Z,10.64
2023-04-07T11:39:23.721Z,10.62
2023-04-07T11:41:51.693Z,10.64
2023-04-07T11:44:20.069Z,10.73
2023-04-07T11:46:59.253Z,10.84
2023-04-07T11:49:28.537Z,10.92
2023-04-07T11:52:00.163Z,10.97
2023-04-07T11:54:28.630Z,11.00
2023-04-07T11:56:56.709Z,11.06
2023-04-07T11:59:25.835Z,11.11
2023-04-07T12:01:56.941Z,11.17
2023-04-07T12:04:26.242Z,11.25
2023-04-07T12:06:54.420Z,11.34
2023-04-07T12:09:36.298Z,11.46
2023-04-07T12:12:08.748Z,11.54
2023-04-07T12:14:37.348Z,11.55
2023-04-07T12:17:05.580Z,11.57
2023-04-07T12:19:36.330Z,11.58
2023-04-07T12:22:04.571Z,11.55
2023-04-07T12:24:32.720Z,11.55
2023-04-07T12:27:00.797Z,11.55
2023-04-07T12:29:30.111Z,11.56
2023-04-07T12:31:58.125Z,11.60
2023-04-07T12:34:27.718Z,11.63
2023-04-07T12:36:55.998Z,11.68
2023-04-07T12:39:23.963Z,11.72
2023-04-07T12:41:53.350Z,11.73
2023-04-07T12:44:21.578Z,11.72
2023-04-07T12:46:49.657Z,11.74
2023-04-07T12:49:17.723Z,11.79
2023-04-07T12:51:46.117Z,11.80
2023-04-07T12:54:15.098Z,11.82
2023-04-07T12:56:43.089Z,11.85
2023-04-07T12:59:11.080Z,11.86
2023-04-07T13:01:39.128Z,11.86
2023-04-07T13:04:07.571Z,11.85
2023-04-07T13:06:35.733Z,11.80
2023-04-07T13:09:03.859Z,11.73
2023-04-07T13:11:31.965Z,11.66
2023-04-07T13:14:01.253Z,11.58
2023-04-07T13:16:29.815Z,11.55
2023-04-07T13:18:58.515Z,11.51
2023-04-07T13:21:45.227Z,11.46
2023-04-07T13:24:14.996Z,11.41
2023-04-07T13:26:43.243Z,11.40
2023-04-07T13:29:11.627Z,11.43
2023-04-07T13:31:39.649Z,11.45
2023-04-07T13:34:07.790Z,11.48
2023-04-07T13:36:35.741Z,11.49
2023-04-07T13:39:03.812Z,11.50
2023-04-07T13:41:32.301Z,11.51
2023-04-07T13:44:01.293Z,11.50
2023-04-07T13:46:29.501Z,11.49
2023-04-07T13:48:57.729Z,11.51
2023-04-07T13:51:26.007Z,11.52
2023-04-07T13:53:54.299Z,11.55
2023-04-07T13:56:22.693Z,11.56
2023-04-07T13:58:50.668Z,11.56
2023-04-07T14:01:18.695Z,11.57
2023-04-07T14:03:47.091Z,11.58
2023-04-07T14:06:15.608Z,11.58
2023-04-07T14:08:43.845Z,11.55
2023-04-07T14:11:12.106Z,11.51
2023-04-07T14:13:40.052Z,11.49
2023-04-07T14:16:08.453Z,11.49
2023-04-07T14:18:37.335Z,11.48
2023-04-07T14:21:06.195Z,11.45
2023-04-07T14:23:37.732Z,11.43
2023-04-07T14:26:09.405Z,11.42
2023-04-07T14:28:37.655Z,11.38
2023-04-07T14:31:06.325Z,11.36
2023-04-07T14:33:34.471Z,11.28
2023-04-07T14:36:02.647Z,11.22
2023-04-07T14:38:30.983Z,11.15
2023-04-07T14:41:09.533Z,11.11
2023-04-07T14:43:38.729Z,11.04
2023-04-07T14:46:07.824Z,11.00
2023-04-07T14:48:35.806Z,10.96
2023-04-07T14:51:09.830Z,10.89
2023-04-07T14:53:38.082Z,10.78
2023-04-07T14:56:06.700Z,10.70
2023-04-07T14:58:37.619Z,10.67
2023-04-07T15:01:06.708Z,10.62
2023-04-07T15:03:37.835Z,10.60
2023-04-07T15:06:11.188Z,10.59
2023-04-07T15:08:41.802Z,10.57
2023-04-07T15:11:09.860Z,10.55
2023-04-07T15:13:37.825Z,10.56
2023-04-07T15:16:10.762Z,10.58
2023-04-07T15:18:41.180Z,10.58
2023-04-07T15:21:10.350Z,10.61
2023-04-07T15:23:39.003Z,10.65
2023-04-07T15:26:07.560Z,10.68
2023-04-07T15:28:35.917Z,10.70
2023-04-07T15:31:09.289Z,10.73
2023-04-07T15:33:39.022Z,10.77
2023-04-07T15:36:08.441Z,10.79
2023-04-07T15:38:39.085Z,10.82
2023-04-07T15:41:07.240Z,10.81
2023-04-07T15:43:36.874Z,10.80
2023-04-07T15:46:04.911Z,10.76
2023-04-07T15:48:33.003Z,10.74
2023-04-07T15:51:00.932Z,10.71
2023-04-07T15:53:29.668Z,10.67
2023-04-07T15:55:57.730Z,10.66
2023-04-07T15:58:25.703Z,10.68
2023-04-07T16:00:53.830Z,10.69
2023-04-07T16:03:22.010Z,10.67
2023-04-07T16:05:51.235Z,10.68
2023-04-07T16:08:19.471Z,10.67
2023-04-07T16:10:47.402Z,10.67
2023-04-07T16:13:15.624Z,10.68
2023-04-07T16:15:43.561Z,10.67
2023-04-07T16:18:14.866Z,10.68
2023-04-07T16:20:42.970Z,10.67
2023-04-07T16:23:11.019Z,10.64
2023-04-07T16:25:38.972Z,10.57
2023-04-07T16:28:07.227Z,10.53
2023-04-07T16:30:35.537Z,10.52
2023-04-07T16:33:03.678Z,10.53
2023-04-07T16:35:32.172Z,10.52
2023-04-07T16:38:04.734Z,10.50
2023-04-07T16:40:33.768Z,10.45
2023-04-07T16:43:01.781Z,10.44
2023-04-07T16:45:29.994Z,10.42
2023-04-07T16:47:58.100Z,10.39
2023-04-07T16:50:26.356Z,10.39
2023-04-07T16:52:57.362Z,10.38
2023-04-07T16:55:25.619Z,10.37
2023-04-07T16:57:53.640Z,10.36
2023-04-07T17:00:22.209Z,10.36
2023-04-07T17:02:50.345Z,10.36
2023-04-07T17:05:18.600Z,10.35
2023-04-07T17:07:47.745Z,10.35
2023-04-07T17:10:15.812Z,10.37
2023-04-07T17:12:45.102Z,10.36
2023-04-07T17:15:13.093Z,10.37
2023-04-07T17:17:41.427Z,10.39
2023-04-07T17:20:10.988Z,10.40
2023-04-07T17:22:39.147Z,10.41
2023-04-07T17:25:07.531Z,10.42
2023-04-07T17:27:36.036Z,10.43
2023-04-07T17:30:05.289Z,10.43
2023-04-07T17:32:33.559Z,10.40
2023-04-07T17:35:01.631Z,10.38
2023-04-07T17:37:29.577Z,10.35
2023-04-07T17:39:57.677Z,10.29
2023-04-07T17:42:26.362Z,10.23
2023-04-07T17:44:54.439Z,10.18
2023-04-07T17:47:22.368Z,10.15
2023-04-07T17:49:50.320Z,10.14
2023-04-07T17:52:18.382Z,10.12
2023-04-07T17:54:46.386Z,10.13
2023-04-07T17:57:16.013Z,10.15
2023-04-07T17:59:44.087Z,10.15
2023-04-07T18:02:12.319Z,10.16
2023-04-07T18:04:41.424Z,10.18
2023-04-07T18:07:12.677Z,10.18
2023-04-07T18:09:43.025Z,10.18
2023-04-07T18:12:11.198Z,10.17
2023-04-07T18:14:39.225Z,10.18
2023-04-07T18:17:07.268Z,10.20
2023-04-07T18:19:35.564Z,10.21
2023-04-07T18:22:03.783Z,10.23
2023-04-07T18:24:32.744Z,10.22
2023-04-07T18:27:01.481Z,10.22
2023-04-07T18:29:30.793Z,10.24
2023-04-07T18:31:58.739Z,10.25
2023-04-07T18:34:26.848Z,10.27
2023-04-07T18:36:55.753Z,10.29
2023-04-07T18:39:28.157Z,10.26
2023-04-07T18:41:57.670Z,10.23
2023-04-07T18:44:26.227Z,10.22
2023-04-07T18:46:54.823Z,10.21
2023-04-07T18:49:23.237Z,10.18
2023-04-07T18:51:52.263Z,10.13
2023-04-07T18:54:21.410Z,10.07
2023-04-07T18:56:49.530Z,10.00
2023-04-07T18:59:17.455Z,9.92
2023-04-07T19:01:45.684Z,9.82
2023-04-07T19:04:15.303Z,9.69
2023-04-07T19:06:43.515Z,9.57
2023-04-07T19:09:11.488Z,9.47
2023-04-07T19:11:41.635Z,9.37
2023-04-07T19:14:09.568Z,9.29
2023-04-07T19:16:37.903Z,9.24
2023-04-07T19:19:06.246Z,9.19
2023-04-07T19:21:34.275Z,9.12
2023-04-07T19:24:02.306Z,9.07
2023-04-07T19:26:30.513Z,9.02
2023-04-07T19:28:58.590Z,8.99
2023-04-07T19:31:26.599Z,9.01
2023-04-07T19:33:54.629Z,9.00
2023-04-07T19:36:22.623Z,8.98
2023-04-07T19:38:50.525Z,8.95
2023-04-07T19:41:18.435Z,8.94
2023-04-07T19:43:47.003Z,8.94
2023-04-07T19:46:15.122Z,8.94
2023-04-07T19:48:43.562Z,8.95
2023-04-07T19:51:11.459Z,8.96
2023-04-07T19:53:39.498Z,8.97
2023-04-07T19:56:07.470Z,8.97
2023-04-07T19:58:35.755Z,8.96
2023-04-07T20:01:04.691Z,8.93
2023-04-07T20:03:33.614Z,8.92
2023-04-07T20:06:02.009Z,8.91
2023-04-07T20:08:30.214Z,8.86
2023-04-07T20:10:58.141Z,8.83
2023-04-07T20:13:26.110Z,8.82
2023-04-07T20:15:54.952Z,8.83
2023-04-07T20:18:22.971Z,8.82
2023-04-07T20:20:58.959Z,8.83
2023-04-07T20:23:27.315Z,8.83
2023-04-07T20:25:55.368Z,8.83
2023-04-07T20:28:24.531Z,8.82
2023-04-07T20:30:52.584Z,8.82
2023-04-07T20:33:20.713Z,8.84
2023-04-07T20:35:49.590Z,8.84
2023-04-07T20:38:18.910Z,8.85
2023-04-07T20:40:47.080Z,8.86
2023-04-07T20:43:18.257Z,8.87
2023-04-07T20:45:47.698Z,8.89
2023-04-07T20:48:17.431Z,8.90
2023-04-07T20:50:45.514Z,8.90
2023-04-07T20:53:13.643Z,8.90
2023-04-07T20:55:41.566Z,8.92
2023-04-07T20:58:09.498Z,8.92
2023-04-07T21:00:37.584Z,8.92
2023-04-07T21:03:06.021Z,8.92
2023-04-07T21:05:34.129Z,8.92
2023-04-07T21:08:02.077Z,8.91
2023-04-07T21:10:30.094Z,8.89
2023-04-07T21:12:58.036Z,8.90
2023-04-07T21:15:26.164Z,8.91
2023-04-07T21:17:54.268Z,8.92
2023-04-07T21:20:22.350Z,8.90
2023-04-07T21:22:50.548Z,8.89
2023-04-07T21:25:18.590Z,8.91
2023-04-07T21:27:46.561Z,8.92
2023-04-07T21:30:14.678Z,8.94
2023-04-07T21:32:45.837Z,8.97
2023-04-07T21:35:13.927Z,8.98
2023-04-07T21:37:41.918Z,8.99
2023-04-07T21:40:10.552Z,8.97
2023-04-07T21:42:38.550Z,8.92
2023-04-07T21:45:07.468Z,8.85
2023-04-07T21:47:35.626Z,8.79
2023-04-07T21:50:03.924Z,8.76
2023-04-07T21:52:32.107Z,8.72
2023-04-07T21:55:00.162Z,8.69
2023-04-07T21:57:28.200Z,8.66
2023-04-07T21:59:56.290Z,8.62
2023-04-07T22:02:24.353Z,8.60
2023-04-07T22:04:52.519Z,8.60
2023-04-07T22:07:20.463Z,8.59
2023-04-07T22:09:48.469Z,8.57
2023-04-07T22:12:16.427Z,8.55
2023-04-07T22:14:45.331Z,8.54
2023-04-07T22:17:13.398Z,8.52
2023-04-07T22:19:41.484Z,8.51
2023-04-07T22:22:09.543Z,8.52
2023-04-07T22:24:37.508Z,8.53
2023-04-07T22:27:05.692Z,8.54
2023-04-07T22:29:33.763Z,8.55
2023-04-07T22:32:01.740Z,8.56
2023-04-07T22:34:29.649Z,8.57
2023-04-07T22:36:58.017Z,8.57
2023-04-07T22:39:26.827Z,8.58
2023-04-07T22:41:54.821Z,8.60
2023-04-07T22:44:22.805Z,8.62
2023-04-07T22:46:50.764Z,8.63
2023-04-07T22:49:18.764Z,8.64
2023-04-07T22:51:48.671Z,8.66
2023-04-07T22:54:17.947Z,8.68
2023-04-07T22:56:46.524Z,8.68
2023-04-07T22:59:14.482Z,8.67
2023-04-07T23:01:42.642Z,8.67
2023-04-07T23:04:10.936Z,8.67
2023-04-07T23:06:40.758Z,8.66
2023-04-07T23:09:08.850Z,8.63
2023-04-07T23:11:36.890Z,8.58
2023-04-07T23:14:07.940Z,8.57
2023-04-07T23:16:36.100Z,8.54
2023-04-07T23:19:04.125Z,8.50
2023-04-07T23:21:32.337Z,8.50
2023-04-07T23:24:00.717Z,8.53
2023-04-07T23:26:28.699Z,8.55
2023-04-07T23:28:56.654Z,8.55
2023-04-07T23:31:24.747Z,8.56
2023-04-07T23:33:52.797Z,8.57
2023-04-07T23:36:20.782Z,8.57
2023-04-07T23:38:48.867Z,8.59
2023-04-07T23:41:17.118Z,8.60
2023-04-07T23:43:45.081Z,8.63
2023-04-07T23:46:13.851Z,8.63
2023-04-07T23:48:42.519Z,8.61
2023-04-07T23:51:10.481Z,8.60
2023-04-07T23:53:38.398Z,8.60
2023-04-07T23:56:06.601Z,8.59
2023-04-07T23:58:34.630Z,8.57
